Wetterstation Vordersexau
Wetterdaten: Woche 26.09.11 - 02.10.11 (KW39)
Datum Zeit Temp. A. Feuchte A. Luftdruck Regen Wind Richtung Taupunkt Windchill Windben
26.09.2011 00:00 12,9 C 81 % 1019,9 hPa 0,0 l/m 0,0 km/h NO 9,7 C 12,9 C 0,0 km/h
26.09.2011 01:00 11,8 C 82 % 1020,3 hPa 0,0 l/m 0,0 km/h NO 8,8 C 11,8 C 0,0 km/h
26.09.2011 02:00 11,3 C 83 % 1020,5 hPa 0,0 l/m 0,0 km/h SO 8,5 C 11,3 C 0,0 km/h
26.09.2011 03:00 10,8 C 83 % 1020,4 hPa 0,0 l/m 0,0 km/h O-NO 8,0 C 10,8 C 0,0 km/h
26.09.2011 04:00 10,2 C 84 % 1020,5 hPa 0,0 l/m 0,0 km/h O-NO 7,6 C 10,2 C 0,0 km/h
26.09.2011 05:00 9,8 C 84 % 1020,7 hPa 0,0 l/m 0,0 km/h O-NO 7,2 C 9,8 C 0,0 km/h
26.09.2011 06:00 9,3 C 84 % 1021,3 hPa 0,0 l/m 0,0 km/h O-NO 6,7 C 9,3 C 0,0 km/h
26.09.2011 07:00 9,3 C 83 % 1021,7 hPa 0,0 l/m 0,0 km/h O-NO 6,6 C 9,3 C 0,0 km/h
26.09.2011 08:00 10,9 C 82 % 1022,1 hPa 0,0 l/m 0,0 km/h NO 7,9 C 10,9 C 0,0 km/h
26.09.2011 09:00 16,4 C 82 % 1022,4 hPa 0,0 l/m 0,0 km/h W 13,3 C 16,4 C 0,0 km/h
26.09.2011 10:00 23,1 C 61 % 1022,5 hPa 0,0 l/m 0,0 km/h NW 15,2 C 23,1 C 0,0 km/h
26.09.2011 11:00 27,5 C 49 % 1022,7 hPa 0,0 l/m 0,0 km/h N-NO 15,8 C 27,5 C 0,0 km/h
26.09.2011 12:00 29,9 C 43 % 1022,5 hPa 0,0 l/m 0,0 km/h N-NW 15,9 C 29,9 C 0,0 km/h
26.09.2011 13:00 29,5 C 41 % 1022,2 hPa 0,0 l/m 0,0 km/h N 14,8 C 29,5 C 0,0 km/h
26.09.2011 14:00 29,8 C 39 % 1021,8 hPa 0,0 l/m 0,0 km/h W 14,3 C 29,8 C 0,0 km/h
26.09.2011 15:00 32,1 C 36 % 1021,5 hPa 0,0 l/m 1,9 km/h N-NW 15,1 C 32,1 C 1,1 km/h
26.09.2011 16:00 33,2 C 34 % 1021,4 hPa 0,0 l/m 0,0 km/h N-NO 15,2 C 33,2 C 0,0 km/h
26.09.2011 17:00 31,1 C 34 % 1021,7 hPa 0,0 l/m 0,0 km/h N-NO 13,4 C 31,1 C 0,0 km/h
26.09.2011 18:00 31,9 C 35 % 1021,9 hPa 0,0 l/m 0,0 km/h NO 14,5 C 31,9 C 0,0 km/h
26.09.2011 19:00 20,6 C 60 % 1022,5 hPa 0,0 l/m 0,0 km/h SO 12,6 C 20,6 C 0,0 km/h
26.09.2011 20:00 17,4 C 71 % 1023,0 hPa 0,0 l/m 0,0 km/h O-SO 12,1 C 17,4 C 0,0 km/h
26.09.2011 21:00 15,6 C 76 % 1023,6 hPa 0,0 l/m 0,0 km/h O-NO 11,4 C 15,6 C 0,0 km/h
26.09.2011 22:00 14,9 C 79 % 1023,7 hPa 0,0 l/m 0,0 km/h O-SO 11,3 C 14,9 C 0,0 km/h
26.09.2011 23:00 14,1 C 81 % 1024,0 hPa 0,0 l/m 0,0 km/h O 10,9 C 14,1 C 0,0 km/h
27.09.2011 00:00 12,8 C 82 % 1024,2 hPa 0,0 l/m 0,0 km/h NO 9,8 C 12,8 C 0,0 km/h
27.09.2011 01:00 13,3 C 83 % 1024,4 hPa 0,0 l/m 0,0 km/h NO 10,5 C 13,3 C 0,0 km/h
27.09.2011 02:00 13,1 C 83 % 1024,3 hPa 0,0 l/m 0,0 km/h NO 10,3 C 13,1 C 0,0 km/h
27.09.2011 03:00 12,4 C 83 % 1024,6 hPa 0,0 l/m 0,0 km/h N-NO 9,6 C 12,4 C 0,0 km/h
27.09.2011 04:00 11,6 C 83 % 1024,8 hPa 0,0 l/m 0,0 km/h N-NO 8,8 C 11,6 C 0,0 km/h
27.09.2011 05:00 11,5 C 83 % 1025,1 hPa 0,0 l/m 0,0 km/h SO 8,7 C 11,5 C 0,0 km/h
27.09.2011 06:00 11,6 C 83 % 1024,9 hPa 0,0 l/m 0,0 km/h NO 8,8 C 11,6 C 0,0 km/h
27.09.2011 07:00 10,9 C 83 % 1025,6 hPa 0,0 l/m 0,0 km/h NO 8,1 C 10,9 C 0,0 km/h
27.09.2011 08:00 11,8 C 82 % 1025,7 hPa 0,0 l/m 0,0 km/h O-SO 8,8 C 11,8 C 0,0 km/h
27.09.2011 09:00 17,1 C 82 % 1026,0 hPa 0,0 l/m 0,0 km/h S 14,0 C 17,1 C 0,0 km/h
27.09.2011 10:00 24,2 C 61 % 1026,4 hPa 0,0 l/m 0,0 km/h W 16,2 C 24,2 C 0,0 km/h
27.09.2011 11:00 27,2 C 50 % 1026,5 hPa 0,0 l/m 0,0 km/h NW 15,9 C 27,2 C 0,0 km/h
27.09.2011 12:00 28,6 C 46 % 1026,3 hPa 0,0 l/m 0,0 km/h W-NW 15,8 C 28,6 C 0,0 km/h
27.09.2011 13:00 28,4 C 47 % 1026,2 hPa 0,0 l/m 0,0 km/h W 16,0 C 28,4 C 0,0 km/h
27.09.2011 14:00 28,9 C 49 % 1025,7 hPa 0,0 l/m 11,0 km/h N-NO 17,1 C 28,4 C 6,1 km/h
27.09.2011 15:00 31,2 C 40 % 1025,3 hPa 0,0 l/m 0,0 km/h NO 16,0 C 31,2 C 0,0 km/h
27.09.2011 16:00 33,0 C 35 % 1024,8 hPa 0,0 l/m 11,7 km/h NO 15,5 C 33,0 C 6,5 km/h
27.09.2011 17:00 30,9 C 38 % 1024,6 hPa 0,0 l/m 6,5 km/h N-NO 14,9 C 30,9 C 3,6 km/h
27.09.2011 18:00 28,9 C 40 % 1025,0 hPa 0,0 l/m 0,0 km/h SO 13,9 C 28,9 C 0,0 km/h
27.09.2011 19:00 20,6 C 60 % 1025,3 hPa 0,0 l/m 0,0 km/h SO 12,6 C 20,6 C 0,0 km/h
27.09.2011 20:00 16,5 C 72 % 1025,6 hPa 0,0 l/m 0,0 km/h SO 11,4 C 16,5 C 0,0 km/h
27.09.2011 21:00 15,2 C 76 % 1026,1 hPa 0,0 l/m 0,0 km/h SO 11,0 C 15,2 C 0,0 km/h
27.09.2011 22:00 15,6 C 78 % 1026,0 hPa 0,0 l/m 0,0 km/h SO 11,8 C 15,6 C 0,0 km/h
27.09.2011 23:00 14,9 C 79 % 1026,3 hPa 0,0 l/m 0,0 km/h O-NO 11,3 C 14,9 C 0,0 km/h
28.09.2011 00:00 14,7 C 80 % 1026,1 hPa 0,0 l/m 0,0 km/h N-NO 11,3 C 14,7 C 0,0 km/h
28.09.2011 01:00 12,9 C 82 % 1026,3 hPa 0,0 l/m 0,0 km/h N-NO 9,9 C 12,9 C 0,0 km/h
28.09.2011 02:00 12,4 C 83 % 1026,1 hPa 0,0 l/m 0,0 km/h NO 9,6 C 12,4 C 0,0 km/h
28.09.2011 03:00 10,4 C 83 % 1025,8 hPa 0,0 l/m 0,0 km/h SO 7,6 C 10,4 C 0,0 km/h
28.09.2011 04:00 10,6 C 83 % 1025,8 hPa 0,0 l/m 0,0 km/h N-NO 7,8 C 10,6 C 0,0 km/h
28.09.2011 05:00 10,5 C 82 % 1025,4 hPa 0,0 l/m 0,0 km/h N-NO 7,6 C 10,5 C 0,0 km/h
28.09.2011 06:00 10,4 C 82 % 1025,1 hPa 0,0 l/m 0,0 km/h S-SO 7,5 C 10,4 C 0,0 km/h
28.09.2011 07:00 8,5 C 83 % 1025,6 hPa 0,0 l/m 0,0 km/h SW 5,8 C 8,5 C 0,0 km/h
28.09.2011 08:00 11,1 C 80 % 1025,7 hPa 0,0 l/m 0,0 km/h W-NW 7,8 C 11,1 C 0,0 km/h
28.09.2011 09:00 12,7 C 78 % 1025,8 hPa 0,0 l/m 0,0 km/h W-NW 9,0 C 12,7 C 0,0 km/h
28.09.2011 10:00 15,1 C 83 % 1026,1 hPa 0,0 l/m 0,0 km/h W 12,2 C 15,1 C 0,0 km/h
28.09.2011 11:00 18,8 C 77 % 1026,1 hPa 0,0 l/m 0,0 km/h NW 14,7 C 18,8 C 0,0 km/h
28.09.2011 12:00 24,2 C 61 % 1025,5 hPa 0,0 l/m 0,0 km/h W 16,2 C 24,2 C 0,0 km/h
28.09.2011 13:00 26,2 C 58 % 1024,9 hPa 0,0 l/m 0,0 km/h S 17,3 C 26,2 C 0,0 km/h
28.09.2011 14:00 27,9 C 55 % 1024,2 hPa 0,0 l/m 13,0 km/h W-SW 18,0 C 27,0 C 7,2 km/h
28.09.2011 15:00 31,5 C 44 % 1023,6 hPa 0,0 l/m 3,2 km/h N-NW 17,7 C 31,5 C 1,8 km/h
28.09.2011 16:00 34,3 C 35 % 1023,0 hPa 0,0 l/m 8,4 km/h O-SO 16,6 C 34,3 C 4,7 km/h
28.09.2011 17:00 35,3 C 24 % 1022,8 hPa 0,0 l/m 0,0 km/h NO 11,6 C 35,3 C 0,0 km/h
28.09.2011 18:00 31,8 C 31 % 1023,1 hPa 0,0 l/m 0,0 km/h SO 12,6 C 31,8 C 0,0 km/h
28.09.2011 19:00 18,9 C 58 % 1023,4 hPa 0,0 l/m 3,2 km/h NO 10,5 C 18,9 C 1,8 km/h
28.09.2011 20:00 18,4 C 60 % 1023,9 hPa 0,0 l/m 0,0 km/h O-NO 10,5 C 18,4 C 0,0 km/h
28.09.2011 21:00 15,6 C 67 % 1024,3 hPa 0,0 l/m 0,0 km/h O-SO 9,5 C 15,6 C 0,0 km/h
28.09.2011 22:00 14,5 C 73 % 1024,2 hPa 0,0 l/m 0,0 km/h N-NO 9,7 C 14,5 C 0,0 km/h
28.09.2011 23:00 13,9 C 77 % 1024,2 hPa 0,0 l/m 8,4 km/h SO 9,9 C 12,7 C 4,7 km/h
29.09.2011 00:00 12,1 C 80 % 1024,3 hPa 0,0 l/m 0,0 km/h NO 8,8 C 12,1 C 0,0 km/h
29.09.2011 01:00 11,5 C 82 % 1024,3 hPa 0,0 l/m 0,0 km/h O-NO 8,5 C 11,5 C 0,0 km/h
29.09.2011 02:00 11,4 C 83 % 1024,4 hPa 0,0 l/m 0,0 km/h N-NO 8,6 C 11,4 C 0,0 km/h
29.09.2011 03:00 11,0 C 83 % 1024,2 hPa 0,0 l/m 0,0 km/h SO 8,2 C 11,0 C 0,0 km/h
29.09.2011 04:00 11,1 C 83 % 1024,1 hPa 0,0 l/m 0,0 km/h W-NW 8,3 C 11,1 C 0,0 km/h
29.09.2011 05:00 10,5 C 83 % 1024,1 hPa 0,0 l/m 0,0 km/h O-NO 7,7 C 10,5 C 0,0 km/h
29.09.2011 06:00 10,1 C 83 % 1023,9 hPa 0,0 l/m 0,0 km/h NO 7,3 C 10,1 C 0,0 km/h
29.09.2011 07:00 10,2 C 82 % 1024,6 hPa 0,0 l/m 0,0 km/h NO 7,3 C 10,2 C 0,0 km/h
29.09.2011 08:00 11,0 C 81 % 1024,6 hPa 0,0 l/m 0,0 km/h O-NO 7,9 C 11,0 C 0,0 km/h
29.09.2011 09:00 16,3 C 82 % 1024,7 hPa 0,0 l/m 0,0 km/h NW 13,2 C 16,3 C 0,0 km/h
29.09.2011 10:00 22,2 C 65 % 1025,0 hPa 0,0 l/m 0,0 km/h W-NW 15,3 C 22,2 C 0,0 km/h
29.09.2011 11:00 26,6 C 53 % 1024,9 hPa 0,0 l/m 0,0 km/h W-NW 16,2 C 26,6 C 0,0 km/h
29.09.2011 12:00 27,9 C 49 % 1024,6 hPa 0,0 l/m 1,9 km/h W 16,2 C 27,9 C 1,1 km/h
29.09.2011 13:00 27,3 C 49 % 1024,3 hPa 0,0 l/m 0,0 km/h NO 15,6 C 27,3 C 0,0 km/h
29.09.2011 14:00 28,5 C 47 % 1023,6 hPa 0,0 l/m 0,0 km/h W 16,1 C 28,5 C 0,0 km/h
29.09.2011 15:00 29,9 C 45 % 1023,3 hPa 0,0 l/m 1,3 km/h W 16,7 C 29,9 C 0,7 km/h
29.09.2011 16:00 30,9 C 43 % 1023,1 hPa 0,0 l/m 0,0 km/h N-NW 16,8 C 30,9 C 0,0 km/h
29.09.2011 17:00 29,2 C 47 % 1022,9 hPa 0,0 l/m 0,0 km/h W-NW 16,7 C 29,2 C 0,0 km/h
29.09.2011 18:00 27,1 C 50 % 1022,9 hPa 0,0 l/m 0,0 km/h W 15,8 C 27,1 C 0,0 km/h
29.09.2011 19:00 19,0 C 67 % 1023,0 hPa 0,0 l/m 0,0 km/h O-NO 12,7 C 19,0 C 0,0 km/h
29.09.2011 20:00 16,9 C 78 % 1023,6 hPa 0,0 l/m 0,0 km/h SO 13,0 C 16,9 C 0,0 km/h
29.09.2011 21:00 15,6 C 81 % 1023,6 hPa 0,0 l/m 2,6 km/h O 12,3 C 15,6 C 1,4 km/h
29.09.2011 22:00 14,1 C 82 % 1023,6 hPa 0,0 l/m 0,0 km/h SO 11,1 C 14,1 C 0,0 km/h
29.09.2011 23:00 12,7 C 83 % 1023,8 hPa 0,0 l/m 2,6 km/h O-NO 9,9 C 12,7 C 1,4 km/h
30.09.2011 00:00 11,9 C 83 % 1023,7 hPa 0,0 l/m 0,0 km/h O-NO 9,1 C 11,9 C 0,0 km/h
30.09.2011 01:00 10,8 C 83 % 1023,8 hPa 0,0 l/m 0,0 km/h O 8,0 C 10,8 C 0,0 km/h
30.09.2011 02:00 10,8 C 83 % 1024,0 hPa 0,0 l/m 0,0 km/h SO 8,0 C 10,8 C 0,0 km/h
30.09.2011 03:00 10,5 C 82 % 1024,0 hPa 0,0 l/m 0,0 km/h O-NO 7,6 C 10,5 C 0,0 km/h
30.09.2011 04:00 10,4 C 82 % 1024,0 hPa 0,0 l/m 0,0 km/h O-NO 7,5 C 10,4 C 0,0 km/h
30.09.2011 05:00 9,9 C 82 % 1023,9 hPa 0,0 l/m 0,0 km/h NO 7,0 C 9,9 C 0,0 km/h
30.09.2011 06:00 9,5 C 82 % 1023,6 hPa 0,0 l/m 0,0 km/h NO 6,6 C 9,5 C 0,0 km/h
30.09.2011 07:00 9,3 C 81 % 1023,7 hPa 0,0 l/m 0,0 km/h NO 6,2 C 9,3 C 0,0 km/h
30.09.2011 08:00 10,3 C 80 % 1024,0 hPa 0,0 l/m 0,0 km/h SO 7,0 C 10,3 C 0,0 km/h
30.09.2011 09:00 14,1 C 76 % 1024,4 hPa 0,0 l/m 0,0 km/h S-SW 9,9 C 14,1 C 0,0 km/h
30.09.2011 10:00 22,6 C 67 % 1024,3 hPa 0,0 l/m 0,0 km/h W 16,2 C 22,6 C 0,0 km/h
30.09.2011 11:00 25,9 C 52 % 1024,4 hPa 0,0 l/m 0,0 km/h NO 15,3 C 25,9 C 0,0 km/h
30.09.2011 12:00 27,6 C 49 % 1024,1 hPa 0,0 l/m 0,0 km/h N-NO 15,9 C 27,6 C 0,0 km/h
30.09.2011 13:00 27,1 C 48 % 1023,6 hPa 0,0 l/m 8,4 km/h N-NO 15,1 C 26,7 C 4,7 km/h
30.09.2011 14:00 28,1 C 47 % 1023,2 hPa 0,0 l/m 0,0 km/h NW 15,7 C 28,1 C 0,0 km/h
30.09.2011 15:00 30,4 C 41 % 1022,8 hPa 0,0 l/m 0,0 km/h W-NW 15,6 C 30,4 C 0,0 km/h
30.09.2011 16:00 33,3 C 35 % 1022,6 hPa 0,0 l/m 0,0 km/h W 15,7 C 33,3 C 0,0 km/h
30.09.2011 17:00 32,3 C 36 % 1022,5 hPa 0,0 l/m 0,0 km/h W-NW 15,3 C 32,3 C 0,0 km/h
30.09.2011 18:00 27,3 C 47 % 1022,4 hPa 0,0 l/m 3,9 km/h W 15,0 C 27,3 C 2,2 km/h
30.09.2011 19:00 18,1 C 68 % 1023,0 hPa 0,0 l/m 0,0 km/h W-NW 12,1 C 18,1 C 0,0 km/h
30.09.2011 20:00 15,8 C 79 % 1023,3 hPa 0,0 l/m 0,0 km/h S-SW 12,2 C 15,8 C 0,0 km/h
30.09.2011 21:00 14,4 C 82 % 1023,5 hPa 0,0 l/m 0,0 km/h NO 11,4 C 14,4 C 0,0 km/h
30.09.2011 22:00 13,4 C 83 % 1023,5 hPa 0,0 l/m 0,0 km/h N-NO 10,6 C 13,4 C 0,0 km/h
30.09.2011 23:00 12,8 C 83 % 1023,5 hPa 0,0 l/m 0,0 km/h N-NO 10,0 C 12,8 C 0,0 km/h
01.10.2011 00:00 12,1 C 84 % 1023,4 hPa 0,0 l/m 0,0 km/h O 9,5 C 12,1 C 0,0 km/h
01.10.2011 01:00 11,1 C 84 % 1023,6 hPa 0,0 l/m 0,0 km/h SO 8,5 C 11,1 C 0,0 km/h
01.10.2011 02:00 10,7 C 84 % 1023,4 hPa 0,0 l/m 0,0 km/h NO 8,1 C 10,7 C 0,0 km/h
01.10.2011 03:00 10,8 C 83 % 1023,4 hPa 0,0 l/m 0,0 km/h NO 8,0 C 10,8 C 0,0 km/h
01.10.2011 04:00 10,1 C 83 % 1023,4 hPa 0,0 l/m 0,0 km/h NO 7,3 C 10,1 C 0,0 km/h
01.10.2011 05:00 10,1 C 83 % 1023,3 hPa 0,0 l/m 0,0 km/h N-NO 7,3 C 10,1 C 0,0 km/h
01.10.2011 06:00 9,8 C 82 % 1023,3 hPa 0,0 l/m 0,0 km/h NO 6,9 C 9,8 C 0,0 km/h
01.10.2011 07:00 9,8 C 82 % 1023,6 hPa 0,0 l/m 0,0 km/h O 6,9 C 9,8 C 0,0 km/h
01.10.2011 08:00 10,1 C 81 % 1024,0 hPa 0,0 l/m 0,0 km/h SO 7,0 C 10,1 C 0,0 km/h
01.10.2011 09:00 15,0 C 75 % 1024,0 hPa 0,0 l/m 0,0 km/h O-SO 10,6 C 15,0 C 0,0 km/h
01.10.2011 10:00 22,6 C 73 % 1024,3 hPa 0,0 l/m 0,0 km/h W 17,5 C 22,6 C 0,0 km/h
01.10.2011 11:00 26,1 C 55 % 1024,1 hPa 0,0 l/m 0,0 km/h W-NW 16,3 C 26,1 C 0,0 km/h
01.10.2011 12:00 27,3 C 51 % 1023,8 hPa 0,0 l/m 0,0 km/h N-NO 16,3 C 27,3 C 0,0 km/h
01.10.2011 13:00 27,4 C 46 % 1023,6 hPa 0,0 l/m 0,0 km/h NW 14,7 C 27,4 C 0,0 km/h
01.10.2011 14:00 28,8 C 43 % 1023,2 hPa 0,0 l/m 0,0 km/h W 15,0 C 28,8 C 0,0 km/h
01.10.2011 15:00 31,1 C 37 % 1023,2 hPa 0,0 l/m 0,0 km/h N-NW 14,7 C 31,1 C 0,0 km/h
01.10.2011 16:00 32,1 C 39 % 1022,9 hPa 0,0 l/m 0,0 km/h N 16,4 C 32,1 C 0,0 km/h
01.10.2011 17:00 32,0 C 37 % 1022,9 hPa 0,0 l/m 0,0 km/h W-NW 15,5 C 32,0 C 0,0 km/h
01.10.2011 18:00 28,2 C 46 % 1023,0 hPa 0,0 l/m 0,0 km/h W-NW 15,5 C 28,2 C 0,0 km/h
01.10.2011 19:00 18,4 C 67 % 1023,4 hPa 0,0 l/m 0,0 km/h W-NW 12,2 C 18,4 C 0,0 km/h
01.10.2011 20:00 15,8 C 78 % 1023,7 hPa 0,0 l/m 0,0 km/h SO 12,0 C 15,8 C 0,0 km/h
01.10.2011 21:00 14,6 C 82 % 1023,7 hPa 0,0 l/m 0,0 km/h O-NO 11,6 C 14,6 C 0,0 km/h
01.10.2011 22:00 13,6 C 83 % 1023,9 hPa 0,0 l/m 0,0 km/h O-NO 10,8 C 13,6 C 0,0 km/h
01.10.2011 23:00 13,0 C 84 % 1023,8 hPa 0,0 l/m 0,0 km/h NO 10,4 C 13,0 C 0,0 km/h
02.10.2011 00:00 12,8 C 84 % 1024,0 hPa 0,0 l/m 0,0 km/h NO 10,2 C 12,8 C 0,0 km/h
02.10.2011 01:00 11,9 C 84 % 1024,1 hPa 0,0 l/m 0,0 km/h SO 9,3 C 11,9 C 0,0 km/h
02.10.2011 02:00 11,5 C 83 % 1024,1 hPa 0,0 l/m 0,0 km/h NO 8,7 C 11,5 C 0,0 km/h
02.10.2011 03:00 10,9 C 83 % 1023,9 hPa 0,0 l/m 0,0 km/h NO 8,1 C 10,9 C 0,0 km/h
02.10.2011 04:00 11,0 C 83 % 1023,7 hPa 0,0 l/m 0,0 km/h NO 8,2 C 11,0 C 0,0 km/h
02.10.2011 05:00 10,4 C 82 % 1023,6 hPa 0,0 l/m 0,0 km/h NO 7,5 C 10,4 C 0,0 km/h
02.10.2011 06:00 10,3 C 82 % 1023,6 hPa 0,0 l/m 0,0 km/h NO 7,4 C 10,3 C 0,0 km/h
02.10.2011 07:00 9,9 C 82 % 1023,6 hPa 0,0 l/m 0,0 km/h NO 7,0 C 9,9 C 0,0 km/h
02.10.2011 08:00 10,8 C 81 % 1023,9 hPa 0,0 l/m 0,0 km/h NO 7,7 C 10,8 C 0,0 km/h
02.10.2011 09:00 15,2 C 77 % 1023,9 hPa 0,0 l/m 0,0 km/h N-NO 11,2 C 15,2 C 0,0 km/h
02.10.2011 10:00 22,8 C 70 % 1023,9 hPa 0,0 l/m 0,0 km/h W-NW 17,0 C 22,8 C 0,0 km/h
02.10.2011 11:00 26,3 C 54 % 1023,7 hPa 0,0 l/m 0,0 km/h W-NW 16,2 C 26,3 C 0,0 km/h
02.10.2011 12:00 27,6 C 50 % 1023,4 hPa 0,0 l/m 0,0 km/h N-NW 16,2 C 27,6 C 0,0 km/h
02.10.2011 13:00 27,5 C 47 % 1022,7 hPa 0,0 l/m 0,0 km/h NO 15,2 C 27,5 C 0,0 km/h
02.10.2011 14:00 28,6 C 46 % 1022,1 hPa 0,0 l/m 0,0 km/h W 15,8 C 28,6 C 0,0 km/h
02.10.2011 15:00 31,5 C 40 % 1021,7 hPa 0,0 l/m 0,0 km/h W 16,2 C 31,5 C 0,0 km/h
02.10.2011 16:00 32,7 C 35 % 1021,7 hPa 0,0 l/m 0,0 km/h NW 15,2 C 32,7 C 0,0 km/h
02.10.2011 17:00 31,6 C 37 % 1021,5 hPa 0,0 l/m 0,0 km/h W-NW 15,1 C 31,6 C 0,0 km/h
02.10.2011 18:00 28,7 C 42 % 1021,3 hPa 0,0 l/m 0,0 km/h N-NW 14,5 C 28,7 C 0,0 km/h
02.10.2011 19:00 19,3 C 66 % 1021,7 hPa 0,0 l/m 30,5 km/h O-SO 12,8 C 13,7 C 16,9 km/h
02.10.2011 20:00 16,4 C 75 % 1022,2 hPa 0,0 l/m 0,0 km/h O 12,0 C 16,4 C 0,0 km/h
02.10.2011 21:00 15,0 C 80 % 1022,2 hPa 0,0 l/m 0,0 km/h O-NO 11,6 C 15,0 C 0,0 km/h
02.10.2011 22:00 13,9 C 82 % 1021,9 hPa 0,0 l/m 0,0 km/h O-NO 10,9 C 13,9 C 0,0 km/h
02.10.2011 23:00 13,0 C 84 % 1022,1 hPa 0,0 l/m 0,0 km/h NO 10,4 C 13,0 C 0,0 km/h
Min-Datum _ 28.09.11 28.09.11 26.09.11 - 26.09.11 - 28.09.11 28.09.11 26.09.11
_ Min-Zeit 07:30 17:30 00:30 - 00:30 - 07:30 07:30 00:30
Minimum _ 8,5 C 24 % 1019,9 hPa - 0,0 km/h - 5,8 C 8,5 C 0,0 km/h
Max-Datum _ 28.09.11 26.09.11 27.09.11 26.09.11 02.10.11 - 28.09.11 28.09.11 02.10.11
_ Max-Zeit 17:30 04:30 11:30 00:30 19:30 - 14:30 17:30 19:30
Maximum _ 35,3 C 84 % 1026,5 hPa 0,0 l/m 30,5 km/h
O-SO
- 18,0 C 35,3 C 16,9 km/h
O-SO
Durchschnitt _ 18,7 C 68 % 1023,7 hPa #0,0 l/m 0,7 km/h NO 11,7 C 18,7 C 0,4 km/h
www.sexauwetter.de